• Join FlightAware (Why Join?)
  • Login
  • US Flag 
11:28AM EST


 

Airport Tracker/Info


-or-


 

Live Flight TrackerFlight Track Log ✈ N717AN ✈ 13-Jun-2013 ✈ SBGR / GRU - KJFK

Flight Track Log - Related Links

Times and Time Zones

All times are in EDT time to prevent confusion due to time zone crossing. See the N717AN flight status page for this flight to view local times or setup timezone preferences in your user account.

Time Position Orientation Groundspeed Altitude Reporting Facility
EDT Latitude Longitude Course Direction KTS MPH feet Rate Location/Type
08:06PM -23.4290 -46.4790 303° West  Level FlightAware
08:26PM -23.4290 -46.4770 90° East 60 Level FlightAware
08:29PM -23.1486 -46.6202 335° Northwest  Level FlightAware Approximate
08:29PM -23.4290 -46.4780 335° Northwest 5 6  Level FlightAware
08:30PM -23.4300 -46.4780 180° South 7 8 240 Level FlightAware
08:30PM -23.4310 -46.4780 180° South 6 7 240 Level FlightAware
08:31PM -23.4310 -46.4790 270° West 7 8 240 Level FlightAware
08:31PM -23.4320 -46.4800 223° Southwest 9 10 300 Level FlightAware
08:34PM -23.1417 -46.6275 335° Northwest  Level FlightAware Approximate
08:34PM -23.4320 -46.4810 335° Northwest 9 10  Level FlightAware
08:34PM -23.4320 -46.4820 270° West 9 10 480 Level FlightAware
08:35PM -23.4330 -46.4840 241° Southwest 6 7 540 Level FlightAware
08:36PM -23.4340 -46.4830 137° Southeast 7 8 660 Level FlightAware
08:38PM -23.4330 -46.4800 70° East 61 70 900 Level FlightAware
08:39PM -23.4290 -46.4650 74° East 165 190 3,720 Level FlightAware
08:39PM -23.4260 -46.4520 76° East 190 219 2,500 5,400 Climbing FlightAware
08:39PM -23.4190 -46.4280 72° East 192 221 3,600 1,980 Climbing FlightAware
08:40PM -23.4130 -46.4080 72° East 212 244 4,000 780 Climbing FlightAware
08:40PM -23.4050 -46.3820 71° East 248 285 4,200 1,260 Climbing FlightAware
08:40PM -23.3950 -46.3460 73° East 271 312 5,200 2,040 Climbing FlightAware
08:41PM -23.3840 -46.3110 71° East 281 323 6,100 2,580 Climbing FlightAware
08:41PM -23.3760 -46.2890 68° East 282 325 6,900 2,400 Climbing FlightAware
08:41PM -23.3630 -46.2730 48° Northeast 288 331 7,400 2,100 Climbing FlightAware
08:42PM -23.3450 -46.2620 29° Northeast 282 325 8,000 2,460 Climbing FlightAware
08:42PM -23.3320 -46.2570 19° North 291 335 8,400 2,580 Climbing FlightAware
08:42PM -23.2940 -46.2440 17° North 286 329 9,700 1,920 Climbing FlightAware
08:43PM -23.2390 -46.2250 18° North 323 372 10,700 1,380 Climbing FlightAware
08:44PM -23.1790 -46.2030 19° North 355 409 11,600 1,500 Climbing FlightAware
08:44PM -23.1100 -46.1790 18° North 394 453 12,700 1,800 Climbing FlightAware
08:45PM -23.0470 -46.1790 360° North 409 471 13,900 2,220 Climbing FlightAware
08:46PM -22.9790 -46.1920 350° North 408 470 15,500 2,580 Climbing FlightAware
08:46PM -22.8930 -46.2070 351° North 425 489 17,400 2,520 Climbing FlightAware
08:47PM -22.8030 -46.2220 351° North 427 491 19,100 2,160 Climbing FlightAware
08:48PM -22.7230 -46.2360 351° North 443 510 20,500 2,100 Climbing FlightAware
08:48PM -22.6330 -46.2510 351° North 443 510 22,100 2,100 Climbing FlightAware
08:49PM -22.5140 -46.2720 351° North 453 521 24,000 1,860 Climbing FlightAware
08:50PM -22.4300 -46.2860 351° North 470 541 25,100 1,440 Climbing FlightAware
08:51PM -22.3110 -46.3060 351° North 488 562 26,300 1,320 Climbing FlightAware
08:52PM -22.2190 -46.3220 351° North 501 577 27,200 1,320 Climbing FlightAware
08:52PM -22.1250 -46.3380 351° North 505 581 28,100 1,500 Climbing FlightAware
08:53PM -22.0170 -46.3580 350° North 506 582 29,400 2,340 Climbing FlightAware
08:54PM -21.9280 -46.3750 350° North 489 563 31,500 2,400 Climbing FlightAware
08:54PM -21.8290 -46.3920 351° North 487 560 32,800 1,140 Climbing FlightAware
08:55PM -21.7490 -46.4040 352° North 488 562 33,000 120 Climbing FlightAware
08:56PM -21.6340 -46.4230 351° North 500 575 33,000  Level FlightAware
08:56PM -21.5400 -46.4380 352° North 502 578 33,000  Level FlightAware
08:57PM -21.4380 -46.4550 351° North 502 578 33,000  Level FlightAware
08:58PM -21.3450 -46.4700 351° North 502 578 33,000  Level FlightAware
08:59PM -21.2440 -46.4870 351° North 501 577 33,000  Level FlightAware
08:59PM -21.1530 -46.5020 351° North 497 572 33,000  Level FlightAware
09:00PM -21.0920 -46.5120 351° North 495 570 33,000  Level FlightAware
09:01PM -20.9520 -46.5340 352° North 491 565 33,000  Level FlightAware
09:01PM -20.8580 -46.5500 351° North 488 562 33,000  Level FlightAware
09:02PM -20.7730 -46.5630 352° North 485 558 33,000  Level FlightAware
09:03PM -20.6710 -46.5800 351° North 485 558 33,000  Level FlightAware
09:03PM -20.5960 -46.5920 351° North 485 558 33,000  Level FlightAware
09:04PM -20.4890 -46.6100 351° North 484 557 33,000  Level FlightAware
09:05PM -20.3960 -46.6270 350° North 486 559 33,000  Level FlightAware
09:06PM -20.3050 -46.6440 350° North 487 560 33,000  Level FlightAware
09:06PM -20.2080 -46.6620 350° North 487 560 33,000  Level FlightAware
09:07PM -20.1210 -46.6770 351° North 486 559 33,000  Level FlightAware
09:08PM -20.0270 -46.6940 350° North 486 559 33,000  Level FlightAware
09:08PM -19.9290 -46.7120 350° North 484 557 33,000  Level FlightAware
09:09PM -19.8320 -46.7290 351° North 482 555 33,000  Level FlightAware
09:10PM -19.7450 -46.7450 350° North 483 556 33,000  Level FlightAware
09:10PM -19.6520 -46.7620 350° North 481 554 33,000  Level FlightAware
09:11PM -19.5550 -46.7790 351° North 479 551 33,000  Level FlightAware
09:12PM -19.4630 -46.7960 350° North 477 549 33,000  Level FlightAware
09:13PM -19.3800 -46.8110 350° North 477 549 33,000  Level FlightAware
09:13PM -19.2880 -46.8280 350° North 477 549 33,000  Level FlightAware
09:14PM -19.1870 -46.8450 351° North 478 550 33,000  Level FlightAware
09:15PM -19.1000 -46.8580 352° North 477 549 33,000  Level FlightAware
09:15PM -19.0160 -46.8710 352° North 477 549 33,000  Level FlightAware
09:16PM -18.9200 -46.8860 352° North 474 545 33,000  Level FlightAware
09:17PM -18.8430 -46.8980 352° North 473 544 33,000  Level FlightAware
09:17PM -18.7390 -46.9150 351° North 474 545 33,000  Level FlightAware
09:18PM -18.6530 -46.9260 353° North 475 547 33,000  Level FlightAware
09:19PM -18.5510 -46.9400 353° North 474 545 33,000  Level FlightAware
09:20PM -18.4430 -46.9540 353° North 475 547 33,000  Level FlightAware
09:20PM -18.3650 -46.9650 352° North 475 547 33,000  Level FlightAware
09:21PM -18.2530 -46.9790 353° North 476 548 33,000  Level FlightAware
09:22PM -18.1630 -46.9910 353° North 478 550 33,000  Level FlightAware
09:23PM -18.0630 -47.0040 353° North 479 551 33,000  Level FlightAware
09:23PM -17.9760 -47.0160 353° North 480 552 33,000  Level FlightAware
09:24PM -17.8890 -47.0280 353° North 480 552 33,000  Level FlightAware
09:25PM -17.7880 -47.0410 353° North 481 554 33,000  Level FlightAware
09:25PM -17.6950 -47.0530 353° North 482 555 33,000  Level FlightAware
09:26PM -17.5770 -47.0700 352° North 482 555 33,000  Level FlightAware
09:27PM -17.4440 -47.0870 353° North 477 549 33,000  Level FlightAware
09:28PM -17.3670 -47.0980 352° North 477 549 33,000  Level FlightAware
09:29PM -17.2980 -47.1080 352° North 477 549 33,000  Level FlightAware
09:29PM -17.2090 -47.1210 352° North 477 549 33,000 540 Level FlightAware
09:30PM -17.0520 -47.1590 347° North 452 520 34,000 600 Climbing FlightAware
09:31PM -16.9940 -47.1910 332° Northwest 452 520 34,000  Level FlightAware
09:32PM -16.9170 -47.2370 330° Northwest 455 524 34,000  Level FlightAware
09:32PM -16.8300 -47.2870 331° Northwest 455 524 34,000  Level FlightAware
09:33PM -16.7330 -47.3420 331° Northwest 457 526 34,000  Level FlightAware
09:34PM -16.6490 -47.3900 331° Northwest 457 526 34,000  Level FlightAware
09:35PM -16.5710 -47.4340 332° Northwest 457 526 34,000 -120 Level FlightAware
09:35PM -16.4890 -47.4810 331° Northwest 456 525 33,900 -960 Descending FlightAware
09:36PM -16.4140 -47.5240 331° Northwest 452 520 32,700 -1,440 Descending FlightAware
09:37PM -16.3300 -47.5720 331° Northwest 466 536 32,000 -540 Descending FlightAware
09:37PM -16.2530 -47.6160 331° Northwest 463 533 32,000  Level FlightAware
09:38PM -16.1690 -47.6640 331° Northwest 459 528 32,000  Level FlightAware
09:39PM -16.0940 -47.7060 332° Northwest 459 528 32,000  Level FlightAware
09:40PM -15.9930 -47.7640 331° Northwest 457 526 32,000  Level FlightAware
09:41PM -15.9100 -47.8120 331° Northwest 455 524 32,000  Level FlightAware
09:41PM -15.8350 -47.8540 332° Northwest 455 524 32,000  Level FlightAware
09:42PM -15.7530 -47.9010 331° Northwest 456 525 32,000  Level FlightAware
09:43PM -15.6760 -47.9440 332° Northwest 458 527 32,000  Level FlightAware
09:43PM -15.6000 -47.9870 331° Northwest 459 528 32,000  Level FlightAware
09:44PM -15.5180 -48.0340 331° Northwest 460 529 32,000  Level FlightAware
09:45PM -15.4420 -48.0770 331° Northwest 460 529 32,000  Level FlightAware
09:45PM -15.3710 -48.1170 331° Northwest 461 531 32,000  Level FlightAware
09:46PM -15.2850 -48.1660 331° Northwest 461 531 32,000  Level FlightAware
09:47PM -15.2070 -48.2090 332° Northwest 461 531 32,000  Level FlightAware
09:47PM -15.1330 -48.2510 331° Northwest 461 531 32,000  Level FlightAware
09:48PM -15.0490 -48.2990 331° Northwest 462 532 32,000  Level FlightAware
09:49PM -14.9650 -48.3460 332° Northwest 463 533 32,000  Level FlightAware
09:50PM -14.8880 -48.3890 332° Northwest 464 534 32,000  Level FlightAware
09:50PM -14.8290 -48.4220 332° Northwest 464 534 32,000  Level FlightAware
09:51PM -14.7200 -48.4840 331° Northwest 463 533 32,000  Level FlightAware
09:52PM -14.6570 -48.5200 331° Northwest 463 533 32,000  Level FlightAware
09:53PM -14.5730 -48.5660 332° Northwest 465 535 32,000  Level FlightAware
09:53PM -14.5140 -48.6000 331° Northwest 465 535 32,000  Level FlightAware
09:54PM -14.4390 -48.6430 331° Northwest 465 535 32,000  Level FlightAware
09:55PM -14.3820 -48.6760 331° Northwest 465 535 32,000  Level FlightAware
09:55PM -14.3060 -48.7190 331° Northwest 465 535 32,000  Level FlightAware
09:56PM -14.2470 -48.7530 331° Northwest 465 535 32,000  Level FlightAware
09:57PM -14.0720 -48.8470 332° Northwest 460 529 32,000  Level FlightAware
09:58PM -14.0150 -48.8790 331° Northwest 460 529 32,000  Level FlightAware
09:58PM -13.9390 -48.9230 331° Northwest 460 529 32,000  Level FlightAware
09:59PM -13.8320 -48.9800 333° Northwest 458 527 32,000  Level FlightAware
10:00PM -13.7320 -49.0360 331° Northwest 457 526 32,000  Level FlightAware
10:01PM -13.6740 -49.0690 331° Northwest 457 526 32,000  Level FlightAware
10:01PM -13.6130 -49.1040 331° Northwest 457 526 32,000  Level FlightAware
10:02PM -13.5390 -49.1470 331° Northwest 457 526 32,000  Level FlightAware
10:03PM -13.4810 -49.1800 331° Northwest 457 526 32,000  Level FlightAware
10:03PM -13.4060 -49.2230 331° Northwest 457 526 32,000  Level FlightAware
10:04PM -13.3130 -49.2760 331° Northwest 457 526 32,000  Level FlightAware
10:05PM -13.2560 -49.3080 331° Northwest 457 526 32,000  Level FlightAware
10:06PM -13.1960 -49.3420 331° Northwest 457 526 32,000  Level FlightAware
10:06PM -13.1190 -49.3860 331° Northwest 457 526 32,000  Level FlightAware
10:07PM -13.0610 -49.4190 331° Northwest 457 526 32,000  Level FlightAware
10:08PM -12.9840 -49.4630 331° Northwest 457 526 32,000  Level FlightAware
10:09PM -12.9260 -49.4960 331° Northwest 457 526 32,000  Level FlightAware
10:11PM -12.6916 -49.5910 338° Northwest  Level Estimated
10:12PM -12.5724 -49.6392 338° Northwest  Level Estimated
10:13PM -12.4532 -49.6874 338° Northwest  Level Estimated
10:14PM -12.3340 -49.7355 338° Northwest  Level Estimated
10:15PM -12.2148 -49.7836 338° Northwest  Level Estimated
10:16PM -12.0956 -49.8316 338° Northwest  Level Estimated
10:17PM -11.9763 -49.8796 339° North  Level Estimated
10:18PM -11.8571 -49.9276 339° North  Level Estimated
10:19PM -11.7378 -49.9755 339° North  Level Estimated
10:20PM -11.6186 -50.0233 339° North  Level Estimated
10:21PM -11.4993 -50.0712 339° North  Level Estimated
10:22PM -11.3800 -50.1189 339° North  Level Estimated
10:23PM -11.2607 -50.1667 339° North  Level Estimated
10:24PM -11.1410 -50.2146 339° North  Level Estimated
10:25PM -11.0213 -50.2624 339° North  Level Estimated
10:25PM -10.8600 -50.6100 339° North 465 535 32,000  Level FlightAware
10:26PM -10.7930 -50.6480 331° Northwest 465 535 32,000  Level FlightAware
10:27PM -10.7950 -50.6470 154° Southeast 465 535 32,000  Level FlightAware
10:27PM -10.7370 -50.6790 332° Northwest 465 535 32,000  Level FlightAware
10:28PM -10.6610 -50.7220 331° Northwest 465 535 32,000  Level FlightAware
10:29PM -10.6030 -50.7550 331° Northwest 465 535 32,000  Level FlightAware
10:30PM -10.5260 -50.7980 331° Northwest 465 535 32,000  Level FlightAware
10:30PM -10.5070 -50.8090 330° Northwest 465 535 32,000  Level FlightAware
10:31PM -10.3920 -50.8740 331° Northwest 465 535 32,000  Level FlightAware
10:32PM -10.3330 -50.9070 331° Northwest 465 535 32,000  Level FlightAware
10:32PM -10.2540 -50.9510 331° Northwest 465 535 32,000  Level FlightAware
10:33PM -10.1970 -50.9840 330° Northwest 465 535 32,000  Level FlightAware
10:34PM -10.1200 -51.0270 331° Northwest 465 535 32,000  Level FlightAware
10:34PM -10.0640 -51.0590 331° Northwest 465 535 32,000  Level FlightAware
10:35PM -9.9650 -51.1140 331° Northwest 465 535 32,000  Level FlightAware
10:36PM -9.8880 -51.1580 331° Northwest 465 535 32,000  Level FlightAware
10:39PM -9.6112 -51.2655 339° North  Level Estimated
10:40PM -9.4909 -51.3122 339° North  Level Estimated
10:41PM -9.3706 -51.3589 339° North  Level Estimated
10:42PM -9.2502 -51.4055 339° North  Level Estimated
10:43PM -9.1298 -51.4521 339° North  Level Estimated
10:44PM -9.0097 -51.4986 339° North  Level Estimated
10:45PM -8.8896 -51.5450 339° North  Level Estimated
10:46PM -8.7694 -51.5914 339° North  Level Estimated
10:47PM -8.6492 -51.6378 339° North  Level Estimated
10:48PM -8.5291 -51.6842 339° North  Level Estimated
10:49PM -8.4089 -51.7305 339° North  Level Estimated
10:50PM -8.2887 -51.7768 339° North  Level Estimated
10:51PM -8.1685 -51.8231 339° North  Level Estimated
10:52PM -8.0483 -51.8693 339° North  Level Estimated
10:53PM -7.9282 -51.9156 339° North  Level Estimated
10:54PM -7.8080 -51.9618 339° North  Level Estimated
10:55PM -7.6877 -52.0079 339° North  Level Estimated
10:56PM -7.5675 -52.0541 339° North  Level Estimated
10:57PM -7.4473 -52.1002 339° North  Level Estimated
10:58PM -7.3271 -52.1463 339° North  Level Estimated
10:59PM -7.2069 -52.1923 339° North  Level Estimated
11:00PM -7.0867 -52.2383 339° North  Level Estimated
11:01PM -6.9664 -52.2844 339° North  Level Estimated
11:02PM -6.8462 -52.3303 339° North  Level Estimated
11:03PM -6.7259 -52.3763 339° North  Level Estimated
11:04PM -6.6057 -52.4223 339° North  Level Estimated
11:05PM -6.4855 -52.4682 339° North  Level Estimated
11:06PM -6.3652 -52.5141 339° North  Level Estimated
11:07PM -6.2449 -52.5600 339° North  Level Estimated
11:08PM -6.1247 -52.6058 339° North  Level Estimated
11:09PM -6.0044 -52.6517 339° North  Level Estimated
11:10PM -5.8842 -52.6975 339° North  Level Estimated
11:11PM -5.7639 -52.7433 339° North  Level Estimated
11:12PM -5.6436 -52.7891 339° North  Level Estimated
11:13PM -5.5233 -52.8348 339° North  Level Estimated
11:14PM -5.4030 -52.8806 339° North  Level Estimated
11:15PM -5.2828 -52.9263 339° North  Level Estimated
11:16PM -5.1625 -52.9720 339° North  Level Estimated
11:17PM -5.0422 -53.0177 339° North  Level Estimated
11:18PM -4.9219 -53.0633 339° North  Level Estimated
11:19PM -4.8016 -53.1090 339° North  Level Estimated
11:20PM -4.6813 -53.1546 339° North  Level Estimated
11:21PM -4.5610 -53.2002 339° North  Level Estimated
11:22PM -4.4406 -53.2459 339° North  Level Estimated
11:23PM -4.3203 -53.2915 339° North  Level Estimated
11:24PM -4.2000 -53.3370 339° North  Level Estimated
11:25PM -4.0797 -53.3826 339° North  Level Estimated
11:26PM -3.9594 -53.4281 339° North  Level Estimated
11:27PM -3.8391 -53.4737 339° North  Level Estimated
11:28PM -3.7188 -53.5192 339° North  Level Estimated
11:29PM -3.5984 -53.5647 339° North  Level Estimated
11:30PM -3.4781 -53.6102 339° North  Level Estimated
11:31PM -3.3578 -53.6557 339° North  Level Estimated
11:32PM -3.2374 -53.7012 339° North  Level Estimated
11:33PM -3.1171 -53.7466 339° North  Level Estimated
11:34PM -2.9968 -53.7921 339° North  Level Estimated
11:35PM -2.8764 -53.8375 339° North  Level Estimated
11:36PM -2.7561 -53.8829 339° North  Level Estimated
11:37PM -2.6357 -53.9284 339° North  Level Estimated
11:38PM -2.5154 -53.9738 339° North  Level Estimated
11:39PM -2.3950 -54.0192 339° North  Level Estimated
11:40PM -2.2747 -54.0646 339° North  Level Estimated
11:41PM -2.1543 -54.1100 339° North  Level Estimated
11:42PM -2.0340 -54.1554 339° North  Level Estimated
11:43PM -1.9136 -54.2007 339° North  Level Estimated
11:44PM -1.7935 -54.2460 339° North  Level Estimated
11:45PM -1.6734 -54.2913 339° North  Level Estimated
11:46PM -1.5532 -54.3366 339° North  Level Estimated
11:47PM -1.4331 -54.3819 339° North  Level Estimated
11:48PM -1.3130 -54.4271 339° North  Level Estimated
11:49PM -1.1928 -54.4724 339° North  Level Estimated
11:50PM -1.0727 -54.5177 339° North  Level Estimated
11:51PM -0.9525 -54.5629 339° North  Level Estimated
11:52PM -0.8324 -54.6082 339° North  Level Estimated
11:53PM -0.7123 -54.6534 339° North  Level Estimated
11:54PM -0.5921 -54.6987 339° North  Level Estimated
11:55PM -0.4720 -54.7439 339° North  Level Estimated
11:56PM -0.3518 -54.7892 339° North  Level Estimated
11:57PM -0.2317 -54.8344 339° North  Level Estimated
11:58PM -0.1116 -54.8796 339° North  Level Estimated
11:59PM 0.0086 -54.9249 339° North  Level Estimated
12:00AM 0.1287 -54.9701 339° North  Level Estimated
12:01AM 0.2489 -55.0154 339° North  Level Estimated
12:02AM 0.3690 -55.0606 339° North  Level Estimated
12:03AM 0.4891 -55.1058 339° North  Level Estimated
12:04AM 0.6093 -55.1511 339° North  Level Estimated
12:05AM 0.7294 -55.1963 339° North  Level Estimated
12:06AM 0.8496 -55.2416 339° North  Level Estimated
12:07AM 0.9697 -55.2868 339° North  Level Estimated
12:08AM 1.0898 -55.3321 339° North  Level Estimated
12:09AM 1.2100 -55.3773 339° North  Level Estimated
12:10AM 1.3301 -55.4226 339° North  Level Estimated
12:11AM 1.4503 -55.4679 339° North  Level Estimated
12:12AM 1.5704 -55.5131 339° North  Level Estimated
12:13AM 1.6905 -55.5584 339° North  Level Estimated
12:14AM 1.8107 -55.6037 339° North  Level Estimated
12:15AM 1.9308 -55.6490 339° North  Level Estimated
12:16AM 2.0509 -55.6943 339° North  Level Estimated
12:17AM 2.1711 -55.7396 339° North  Level Estimated
12:18AM 2.2912 -55.7849 339° North  Level Estimated
12:19AM 2.4113 -55.8302 339° North  Level Estimated
12:20AM 2.5314 -55.8756 339° North  Level Estimated
12:21AM 2.6514 -55.9208 339° North  Level Estimated
12:22AM 2.7713 -55.9661 339° North  Level Estimated
12:23AM 2.8911 -56.0113 339° North  Level Estimated
12:24AM 3.0110 -56.0566 339° North  Level Estimated
12:25AM 3.1309 -56.1019 339° North  Level Estimated
12:26AM 3.2508 -56.1472 339° North  Level Estimated
12:27AM 3.3707 -56.1925 339° North  Level Estimated
12:28AM 3.4906 -56.2378 339° North  Level Estimated
12:29AM 3.6105 -56.2832 339° North  Level Estimated
12:30AM 3.7304 -56.3285 339° North  Level Estimated
12:31AM 3.8503 -56.3739 339° North  Level Estimated
12:32AM 3.9702 -56.4193 339° North  Level Estimated
12:33AM 4.0901 -56.4646 339° North  Level Estimated
12:34AM 4.2099 -56.5100 339° North  Level Estimated
12:35AM 4.3298 -56.5554 339° North  Level Estimated
12:36AM 4.4497 -56.6009 339° North  Level Estimated
12:37AM 4.5696 -56.6463 339° North  Level Estimated
12:38AM 4.6894 -56.6918 339° North  Level Estimated
12:39AM 4.8093 -56.7372 339° North  Level Estimated
12:40AM 4.9292 -56.7827 339° North  Level Estimated
12:41AM 5.0490 -56.8282 339° North  Level Estimated
12:42AM 5.1689 -56.8737 339° North  Level Estimated
12:43AM 5.2887 -56.9193 339° North  Level Estimated
12:44AM 5.4086 -56.9649 339° North  Level Estimated
12:45AM 5.5284 -57.0104 339° North  Level Estimated
12:46AM 5.6483 -57.0560 339° North  Level Estimated
12:47AM 5.7681 -57.1016 339° North  Level Estimated
12:48AM 5.8879 -57.1473 339° North  Level Estimated
12:49AM 6.0078 -57.1929 339° North  Level Estimated
12:50AM 6.1276 -57.2386 339° North  Level Estimated
12:51AM 6.2474 -57.2843 339° North  Level Estimated
12:52AM 6.3672 -57.3300 339° North  Level Estimated
12:53AM 6.4871 -57.3757 339° North  Level Estimated
12:54AM 6.6069 -57.4215 339° North  Level Estimated
12:55AM 6.7267 -57.4672 339° North  Level Estimated
12:56AM 6.8465 -57.5130 339° North  Level Estimated
12:57AM 6.9663 -57.5588 339° North  Level Estimated
12:58AM 7.0861 -57.6047 339° North  Level Estimated
12:59AM 7.2059 -57.6506 339° North  Level Estimated
01:00AM 7.3256 -57.6965 339° North  Level Estimated
01:01AM 7.4454 -57.7424 339° North  Level Estimated
01:02AM 7.5652 -57.7883 339° North  Level Estimated
01:03AM 7.6850 -57.8343 339° North  Level Estimated
01:04AM 7.8047 -57.8803 339° North  Level Estimated
01:05AM 7.9245 -57.9263 339° North  Level Estimated
01:06AM 8.0442 -57.9724 339° North  Level Estimated
01:07AM 8.1640 -58.0184 339° North  Level Estimated
01:08AM 8.2837 -58.0645 339° North  Level Estimated
01:09AM 8.4035 -58.1106 339° North  Level Estimated
01:10AM 8.5232 -58.1568 339° North  Level Estimated
01:11AM 8.6430 -58.2030 339° North  Level Estimated
01:12AM 8.7627 -58.2492 339° North  Level Estimated
01:13AM 8.8824 -58.2955 339° North  Level Estimated
01:14AM 9.0021 -58.3418 339° North  Level Estimated
01:15AM 9.1218 -58.3881 339° North  Level Estimated
01:16AM 9.2415 -58.4344 339° North  Level Estimated
01:17AM 9.3612 -58.4808 339° North  Level Estimated
01:18AM 9.4809 -58.5272 339° North  Level Estimated
01:19AM 9.6006 -58.5736 339° North  Level Estimated
01:20AM 9.7203 -58.6201 339° North  Level Estimated
01:21AM 9.8399 -58.6666 339° North  Level Estimated
01:22AM 9.9596 -58.7131 339° North  Level Estimated
01:23AM 10.0792 -58.7597 339° North  Level Estimated
01:24AM 10.1989 -58.8063 339° North  Level Estimated
01:25AM 10.3185 -58.8529 339° North  Level Estimated
01:26AM 10.4382 -58.8996 339° North  Level Estimated
01:27AM 10.5625 -58.9481 339° North  Level Estimated
01:28AM 10.6863 -58.9965 339° North  Level Estimated
01:29AM 10.8057 -59.0432 339° North  Level Estimated
01:30AM 10.9251 -59.0899 339° North  Level Estimated
01:31AM 11.0444 -59.1367 339° North  Level Estimated
01:32AM 11.1638 -59.1835 339° North  Level Estimated
01:33AM 11.2832 -59.2304 339° North  Level Estimated
01:34AM 11.4026 -59.2773 339° North  Level Estimated
01:35AM 11.5219 -59.3242 339° North  Level Estimated
01:36AM 11.6413 -59.3712 339° North  Level Estimated
01:37AM 11.7606 -59.4182 339° North  Level Estimated
01:38AM 11.8799 -59.4652 339° North  Level Estimated
01:39AM 11.9993 -59.5123 339° North  Level Estimated
01:39AM 11.9050 -62.2540 339° North 496 571 36,000  Level FlightAware
01:40AM 12.1186 -59.5594 339° North  Level Estimated
01:40AM 12.0080 -62.3180 329° Northwest 496 571 36,000  Level FlightAware
01:41AM 12.1310 -62.3900 330° Northwest 496 571 36,000  Level FlightAware
01:42AM 12.2400 -62.4560 329° Northwest 496 571 36,000  Level FlightAware
01:42AM 12.1960 -62.4300 150° Southeast 496 571 36,000  Level FlightAware
01:43AM 12.4150 -62.5620 330° Northwest 496 571 36,000  Level FlightAware
01:44AM 12.4950 -62.6100 330° Northwest 495 570 36,000  Level FlightAware
01:44AM 12.5860 -62.6660 329° Northwest 494 568 36,000  Level FlightAware
01:45AM 12.6580 -62.7090 330° Northwest 493 567 36,000  Level FlightAware
01:46AM 12.7450 -62.7620 329° Northwest 492 566 36,000  Level FlightAware
01:46AM 12.8270 -62.8120 329° Northwest 492 566 36,000  Level FlightAware
01:47AM 12.9130 -62.8640 329° Northwest 494 568 36,000  Level FlightAware
01:48AM 13.0110 -62.9240 329° Northwest 494 568 36,000  Level FlightAware
01:49AM 13.0980 -62.9770 329° Northwest 493 567 36,000  Level FlightAware
01:49AM 13.1900 -63.0330 329° Northwest 490 564 36,000  Level FlightAware
01:50AM 13.3010 -63.0870 335° Northwest 493 567 36,000  Level FlightAware
01:51AM 13.4030 -63.1170 344° North 492 566 36,000  Level FlightAware
01:52AM 13.4730 -63.1560 332° Northwest 490 564 36,000  Level FlightAware
01:52AM 13.5570 -63.2000 333° Northwest 488 562 36,000  Level FlightAware
01:53AM 13.6360 -63.2510 328° Northwest 488 562 36,000  Level FlightAware
01:54AM 13.7180 -63.3060 327° Northwest 488 562 36,000  Level FlightAware
01:55AM 13.8100 -63.3460 337° Northwest 487 560 36,000  Level FlightAware
01:55AM 13.9000 -63.3900 335° Northwest 491 565 36,000  Level FlightAware
01:56AM 14.0020 -63.4160 346° North 495 570 36,000  Level FlightAware
01:57AM 14.0720 -63.4350 345° North 493 567 36,000  Level FlightAware
01:57AM 14.1710 -63.4720 340° North 489 563 36,000  Level FlightAware
01:58AM 14.2600 -63.5060 340° North 488 562 36,000  Level FlightAware
01:59AM 14.3480 -63.5390 340° North 490 564 36,000  Level FlightAware
01:59AM 14.4420 -63.5740 340° North 490 564 36,000  Level FlightAware
02:00AM 14.5160 -63.6030 339° North 489 563 36,000  Level FlightAware
02:01AM 14.6010 -63.6510 331° Northwest 486 559 36,000  Level FlightAware
02:01AM 14.6540 -63.7050 315° West 482 555 36,000  Level FlightAware
02:02AM 14.7300 -63.7730 319° Northwest 484 557 36,000  Level FlightAware
02:03AM 14.8010 -63.8290 323° Northwest 483 556 36,000  Level FlightAware
02:03AM 14.8780 -63.8900 323° Northwest 483 556 36,000  Level FlightAware
02:04AM 14.9510 -63.9470 323° Northwest 484 557 36,000  Level FlightAware
02:05AM 15.0410 -64.0170 323° Northwest 485 558 36,000  Level FlightAware
02:06AM 15.1100 -64.0710 323° Northwest 487 560 36,000  Level FlightAware
02:07AM 15.2090 -64.1480 323° Northwest 487 560 36,000  Level FlightAware
02:07AM 15.2640 -64.1910 323° Northwest 487 560 36,000  Level FlightAware
02:08AM 15.3380 -64.2480 323° Northwest 487 560 36,000  Level FlightAware
02:09AM 15.3930 -64.2910 323° Northwest 487 560 36,000  Level FlightAware
02:09AM 15.4660 -64.3490 323° Northwest 487 560 36,000  Level FlightAware
02:10AM 15.5200 -64.3900 324° Northwest 487 560 36,000  Level FlightAware
02:11AM 15.5930 -64.4480 323° Northwest 487 560 36,000  Level FlightAware
02:11AM 15.6480 -64.4910 323° Northwest 487 560 36,000  Level FlightAware
02:12AM 15.7430 -64.5650 323° Northwest 487 560 36,000  Level FlightAware
02:13AM 15.7980 -64.6080 323° Northwest 487 560 36,000  Level FlightAware
02:14AM 15.8730 -64.6670 323° Northwest 487 560 36,000  Level FlightAware
02:15AM 15.9300 -64.7110 323° Northwest 487 560 36,000  Level FlightAware
02:16AM 16.0230 -64.7850 323° Northwest 487 560 36,000  Level FlightAware
02:16AM 16.0800 -64.8290 323° Northwest 487 560 36,000  Level FlightAware
02:17AM 16.4000 -64.9833 323° Northwest 480 552 36,000  Level San Juan Center
02:18AM 16.5167 -65.0667 326° Northwest 490 564 36,000  Level San Juan Center
02:24AM 17.1540 -65.4950 326° Northwest 475 547 36,000  Level FlightAware
02:25AM 17.2250 -65.5450 326° Northwest 473 544 36,000  Level FlightAware
02:25AM 17.3010 -65.5980 326° Northwest 472 543 36,000  Level FlightAware
02:26AM 17.3780 -65.6510 327° Northwest 470 541 36,000  Level FlightAware
02:27AM 17.4530 -65.7030 327° Northwest 469 540 36,000  Level FlightAware
02:27AM 17.5260 -65.7540 326° Northwest 469 540 36,000  Level FlightAware
02:28AM 17.5970 -65.8040 326° Northwest 468 539 36,000  Level FlightAware
02:29AM 17.6830 -65.8640 326° Northwest 466 536 36,000  Level FlightAware
02:29AM 17.7520 -65.9120 326° Northwest 467 537 36,000  Level FlightAware
02:30AM 17.8280 -65.9660 326° Northwest 467 537 36,000  Level FlightAware
02:31AM 17.9080 -66.0220 326° Northwest 467 537 36,000  Level FlightAware
02:31AM 17.9790 -66.0710 327° Northwest 468 539 36,000  Level FlightAware
02:32AM 18.0620 -66.1300 326° Northwest 466 536 36,000  Level FlightAware
02:33AM 18.1330 -66.1800 326° Northwest 466 536 36,000  Level FlightAware
02:34AM 18.2120 -66.2350 327° Northwest 466 536 36,000  Level FlightAware
02:34AM 18.2710 -66.2770 326° Northwest 466 536 36,000  Level FlightAware
02:35AM 18.3490 -66.3320 326° Northwest 466 536 36,000  Level FlightAware
02:36AM 18.4360 -66.3940 326° Northwest 468 539 36,000  Level FlightAware
02:36AM 18.5060 -66.4430 326° Northwest 469 540 36,000  Level FlightAware
02:37AM 18.5870 -66.5000 326° Northwest 467 537 36,000  Level FlightAware
02:38AM 18.6650 -66.5560 326° Northwest 466 536 36,000  Level FlightAware
02:39AM 18.7370 -66.6070 326° Northwest 466 536 36,000  Level FlightAware
02:39AM 18.8090 -66.6580 326° Northwest 465 535 36,000  Level FlightAware
02:40AM 18.8630 -66.6970 326° Northwest 464 534 36,000  Level FlightAware
02:41AM 18.9700 -66.7720 326° Northwest 462 532 36,000  Level FlightAware
02:41AM 19.0430 -66.8250 326° Northwest 460 529 36,000  Level FlightAware
02:42AM 19.1140 -66.8750 326° Northwest 460 529 36,000  Level FlightAware
02:43AM 19.1920 -66.9310 326° Northwest 461 531 36,000  Level FlightAware
02:43AM 19.2620 -66.9810 326° Northwest 459 528 36,000  Level FlightAware
02:44AM 19.3340 -67.0330 326° Northwest 459 528 36,000  Level FlightAware
02:45AM 19.4020 -67.0810 326° Northwest 459 528 36,000  Level FlightAware
02:46AM 19.4820 -67.1390 326° Northwest 457 526 36,000  Level FlightAware
02:46AM 19.5620 -67.1960 326° Northwest 456 525 36,000  Level FlightAware
02:47AM 19.6280 -67.2430 326° Northwest 454 522 36,000  Level FlightAware
02:48AM 19.7030 -67.2980 325° Northwest 453 521 36,000  Level FlightAware
02:49AM 19.7960 -67.3650 326° Northwest 452 520 36,000  Level FlightAware
02:49AM 19.8840 -67.4290 326° Northwest 452 520 36,000  Level FlightAware
02:50AM 19.9510 -67.4790 325° Northwest 452 520 36,000  Level FlightAware
02:51AM 20.0410 -67.5430 326° Northwest 450 518 36,000  Level FlightAware
02:52AM 20.0930 -67.5810 326° Northwest 450 518 36,000  Level FlightAware
02:52AM 20.1850 -67.6470 326° Northwest 452 520 36,000  Level FlightAware
02:53AM 20.2890 -67.7220 326° Northwest 452 520 36,000  Level FlightAware
02:54AM 20.3740 -67.7840 326° Northwest 452 520 36,000  Level FlightAware
02:55AM 20.4260 -67.8230 325° Northwest 452 520 36,000  Level FlightAware
02:55AM 20.4710 -67.8570 325° Northwest 452 520 36,000  Level FlightAware
02:56AM 20.5410 -67.9090 325° Northwest 452 520 36,000  Level FlightAware
02:57AM 20.6350 -67.9750 327° Northwest 448 516 36,000  Level FlightAware
02:58AM 20.7040 -68.0270 325° Northwest 448 516 36,000  Level FlightAware
02:58AM 20.7560 -68.0660 325° Northwest 448 516 36,000  Level FlightAware
02:59AM 20.8260 -68.1180 325° Northwest 448 516 36,000  Level FlightAware
03:00AM 20.8790 -68.1580 325° Northwest 448 516 36,000  Level FlightAware
03:00AM 20.9410 -68.2040 325° Northwest 448 516 36,000  Level FlightAware
03:01AM 21.0050 -68.2520 325° Northwest 448 516 36,000  Level FlightAware
03:02AM 21.0570 -68.2910 325° Northwest 448 516 36,000  Level FlightAware
03:02AM 21.1260 -68.3430 325° Northwest 448 516 36,000  Level FlightAware
03:03AM 21.1790 -68.3830 325° Northwest 448 516 36,000  Level FlightAware
03:04AM 21.2490 -68.4350 325° Northwest 448 516 36,000  Level FlightAware
03:04AM 21.3010 -68.4740 325° Northwest 448 516 36,000  Level FlightAware
03:05AM 21.3700 -68.5260 325° Northwest 448 516 36,000  Level FlightAware
03:06AM 21.4250 -68.5670 325° Northwest 448 516 36,000  Level FlightAware
03:06AM 21.7014 -68.5042 325° Northwest 460 529 36,000  Level Miami Center
03:07AM 21.8208 -68.5592 337° Northwest 461 531 36,000  Level Miami Center
03:08AM 21.9342 -68.6122 337° Northwest 461 531 36,000  Level Miami Center
03:09AM 22.0578 -68.6650 338° Northwest 462 532 36,000  Level Miami Center
03:10AM 22.1733 -68.7203 336° Northwest 462 532 36,000  Level Miami Center
03:11AM 22.2886 -68.7714 338° Northwest 455 524 36,000  Level Miami Center
03:12AM 22.4039 -68.8250 337° Northwest 449 517 36,000  Level Miami Center
03:13AM 22.5258 -68.8803 337° Northwest 449 517 36,000  Level Miami Center
03:14AM 22.6475 -68.9378 336° Northwest 456 525 36,000  Level Miami Center
03:15AM 22.7608 -68.9894 337° Northwest 456 525 36,000  Level Miami Center
03:16AM 22.8803 -69.0428 338° Northwest 456 525 36,000  Level Miami Center
03:17AM 23.0000 -69.0986 337° Northwest 462 532 36,000  Level Miami Center
03:18AM 23.1217 -69.1567 336° Northwest 462 532 36,000  Level Miami Center
03:19AM 23.2392 -69.2106 337° Northwest 470 541 36,000  Level Miami Center
03:20AM 23.3653 -69.2708 336° Northwest 463 533 36,000  Level Miami Center
03:21AM 23.4828 -69.3269 336° Northwest 469 540 36,000  Level Miami Center
03:22AM 23.6067 -69.3853 337° Northwest 478 550 36,000  Level Miami Center
03:23AM 23.7219 -69.4397 337° Northwest 469 540 36,000  Level Miami Center
03:24AM 23.8414 -69.4939 337° Northwest 458 527 36,000  Level Miami Center
03:25AM 23.9567 -69.5461 338° Northwest 458 527 36,000  Level Miami Center
03:26AM 24.0764 -69.6072 335° Northwest 464 534 36,000  Level Miami Center
03:27AM 24.1958 -69.6617 337° Northwest 464 534 36,000  Level Miami Center
03:28AM 24.3133 -69.7164 337° Northwest 459 528 36,000  Level Miami Center
03:29AM 24.4331 -69.7756 336° Northwest 459 528 36,000  Level Miami Center
03:30AM 24.5528 -69.8350 336° Northwest 464 534 36,000  Level Miami Center
03:31AM 24.6700 -69.8900 337° Northwest 464 534 36,000  Level Miami Center
03:32AM 24.7872 -69.9450 337° Northwest 469 540 36,000  Level Miami Center
03:33AM 24.8333 -69.9667 336° Northwest 456 525 36,000  Level New York Oceanic (ODAPS)
03:33AM 24.9025 -69.9978 336° Northwest 455 524 36,000  Level Miami Center
03:34AM 25.0261 -70.0550 337° Northwest 455 524 36,000  Level Miami Center
03:36AM 25.0000 -70.0500 348° North 472 543 36,000  Level New York Oceanic (ODAPS)
03:42AM 26.0406 -70.2927 348° North 472 543 36,000  Level FlightAware Transoceanic
03:43AM 26.1706 -70.3233 348° North 472 543 36,000  Level FlightAware Transoceanic
03:44AM 26.3007 -70.3540 348° North 472 543 36,000  Level FlightAware Transoceanic
03:45AM 26.4307 -70.3848 348° North 472 543 36,000  Level FlightAware Transoceanic
03:46AM 26.5607 -70.4156 348° North 472 543 36,000  Level FlightAware Transoceanic
03:47AM 26.6908 -70.4465 348° North 472 543 36,000  Level FlightAware Transoceanic
03:47AM 26.6000 -70.4333 348° North 472 543 36,000  Level New York Oceanic (ODAPS)
03:48AM 26.8208 -70.4775 348° North 472 543 36,000  Level FlightAware Transoceanic
03:49AM 26.9508 -70.5086 348° North 472 543 36,000  Level FlightAware Transoceanic
03:50AM 27.0808 -70.5397 348° North 472 543 36,000  Level FlightAware Transoceanic
03:51AM 27.2108 -70.5709 348° North 472 543 36,000  Level FlightAware Transoceanic
03:52AM 27.3407 -70.6022 348° North 472 543 36,000  Level FlightAware Transoceanic
03:53AM 27.4120 -70.6248 348° North 472 543 36,000  Level FlightAware Transoceanic
03:54AM 27.5473 -70.6570 348° North 472 543 36,000  Level FlightAware Transoceanic
03:55AM 27.6826 -70.6893 348° North 472 543 36,000  Level FlightAware Transoceanic
03:56AM 27.8179 -70.7216 348° North 472 543 36,000  Level FlightAware Transoceanic
03:57AM 27.9532 -70.7540 348° North 472 543 36,000  Level FlightAware Transoceanic
03:58AM 28.0885 -70.7865 348° North 472 543 36,000  Level FlightAware Transoceanic
03:59AM 28.2238 -70.8191 348° North 472 543 36,000  Level FlightAware Transoceanic
04:00AM 28.3590 -70.8518 348° North 472 543 36,000  Level FlightAware Transoceanic
04:00AM 28.3833 -70.8500 347° North 464 534 36,000  Level New York Oceanic (ODAPS)
04:01AM 28.4943 -70.8846 348° North 472 543 36,000  Level FlightAware Transoceanic
04:02AM 28.6295 -70.9174 348° North 472 543 36,000  Level FlightAware Transoceanic
04:03AM 28.7648 -70.9503 348° North 472 543 36,000  Level FlightAware Transoceanic
04:04AM 28.9000 -70.9833 348° North 472 543 36,000  Level FlightAware Transoceanic
04:05AM 29.0272 -71.0146 348° North 472 543 36,000  Level FlightAware Transoceanic
04:05AM 28.8500 -70.9667 344° North 463 533 36,000  Level New York Oceanic (ODAPS)
04:06AM 29.1545 -71.0459 348° North 472 543 36,000  Level FlightAware Transoceanic
04:07AM 29.2817 -71.0773 348° North 464 534 36,000  Level FlightAware Transoceanic
04:08AM 29.4089 -71.1088 348° North 464 534 36,000  Level FlightAware Transoceanic
04:09AM 29.5361 -71.1404 348° North 464 534 36,000  Level FlightAware Transoceanic
04:10AM 29.6633 -71.1720 348° North 464 534 36,000  Level FlightAware Transoceanic
04:11AM 29.6633 -71.1720 348° North 463 533 36,000  Level FlightAware Transoceanic
04:12AM 29.7905 -71.2038 348° North 463 533 36,000  Level FlightAware Transoceanic
04:13AM 29.9177 -71.2356 348° North 463 533 36,000  Level FlightAware Transoceanic
04:14AM 30.0449 -71.2675 348° North 463 533 36,000  Level FlightAware Transoceanic
04:14AM 30.0000 -71.2500 348° North 468 539 36,000  Level New York Oceanic (ODAPS)
04:14AM 30.1333 -71.2833 348° North 466 536 36,000  Level New York Oceanic (ODAPS)
04:15AM 30.1721 -71.2994 348° North 463 533 36,000  Level FlightAware Transoceanic
04:16AM 30.2992 -71.3315 348° North 463 533 36,000  Level FlightAware Transoceanic
04:17AM 30.4264 -71.3636 348° North 463 533 36,000  Level FlightAware Transoceanic
04:18AM 30.5535 -71.3959 348° North 463 533 36,000  Level FlightAware Transoceanic
04:19AM 30.6807 -71.4281 348° North 463 533 36,000  Level FlightAware Transoceanic
04:20AM 30.7716 -71.4463 348° North 468 539 36,000  Level FlightAware Transoceanic
04:21AM 30.9040 -71.4800 348° North 466 536 36,000  Level FlightAware Transoceanic
04:22AM 31.0324 -71.5130 348° North 466 536 36,000  Level FlightAware Transoceanic
04:22AM 31.0833 -71.5333 348° North 471 542 36,000  Level New York Oceanic (ODAPS)
04:23AM 31.1608 -71.5462 348° North 466 536 36,000  Level FlightAware Transoceanic
04:24AM 31.2892 -71.5795 348° North 466 536 36,000  Level FlightAware Transoceanic
04:24AM 31.3833 -71.6000 347° North 486 559 36,000  Level New York Oceanic (ODAPS)
04:25AM 31.4176 -71.6128 347° North 466 536 36,000  Level FlightAware Transoceanic
04:26AM 31.5459 -71.6463 347° North 466 536 36,000  Level FlightAware Transoceanic
04:27AM 31.6743 -71.6798 347° North 466 536 36,000  Level FlightAware Transoceanic
04:28AM 31.8403 -71.7286 348° North 471 542 36,000  Level FlightAware Transoceanic
04:29AM 31.9664 -71.7615 348° North 471 542 36,000  Level FlightAware Transoceanic
04:30AM 32.0337 -71.7712 347° North 486 559 36,000  Level FlightAware Transoceanic
04:31AM 32.1637 -71.8058 347° North 486 559 36,000  Level FlightAware Transoceanic
04:32AM 32.2938 -71.8404 347° North 486 559 36,000  Level FlightAware Transoceanic
04:33AM 32.4238 -71.8751 347° North 486 559 36,000  Level FlightAware Transoceanic
04:34AM 32.5538 -71.9100 347° North 486 559 36,000 -120 Level FlightAware Transoceanic
04:42AM 33.5167 -72.1667 347° North 579 666 35,000 -120 Descending New York Oceanic (ODAPS)
04:42AM 33.5500 -72.1833 347° North 479 551 35,000  Level New York Oceanic (ODAPS)
04:46AM 34.2000 -72.3167 354° North 565 650 35,000  Level New York Oceanic (ODAPS)
05:09AM 37.0950 -70.9097 354° North 474 545 35,000  Level New York Center
05:10AM 37.1950 -71.0194 319° Northwest 479 551 35,000 -60 Level New York Center
05:11AM 37.3031 -71.1167 324° Northwest 479 551 34,900 -60 Descending New York Center
05:12AM 37.4175 -71.1956 331° Northwest 479 551 34,900  Level New York Center
05:13AM 37.5297 -71.2906 326° Northwest 479 551 34,900  Level New York Center
05:19AM 38.2441 -71.8220 326° Northwest 480 552 35,000  Climbing FlightAware ADS-B
05:20AM 38.3044 -71.8693 328° Northwest 480 552 35,000  Level FlightAware ADS-B
05:20AM 38.3638 -71.9159 328° Northwest 482 555 35,000  Level FlightAware ADS-B
05:21AM 38.4223 -71.9621 328° Northwest 485 558 35,000  Level FlightAware ADS-B
05:21AM 38.4805 -72.0079 328° Northwest 485 558 35,000  Level FlightAware ADS-B
05:22AM 38.5399 -72.0548 328° Northwest 483 556 35,000  Level FlightAware ADS-B
05:22AM 38.5970 -72.1001 328° Northwest 484 557 35,000 -540 Level FlightAware ADS-B
05:23AM 38.6549 -72.1460 328° Northwest 481 554 34,500 -1,680 Descending FlightAware ADS-B
05:23AM 38.7192 -72.1972 328° Northwest 491 565 33,200 -2,340 Descending FlightAware ADS-B
05:24AM 38.7795 -72.2453 328° Northwest 499 574 32,000 -2,400 Descending FlightAware ADS-B
05:24AM 38.8388 -72.2922 328° Northwest 499 574 30,800 -2,400 Descending FlightAware ADS-B
05:25AM 38.8991 -72.3406 328° Northwest 494 568 29,600 -2,280 Descending FlightAware ADS-B
05:25AM 38.9580 -72.3890 327° Northwest 485 558 28,500 -2,220 Descending FlightAware ADS-B
05:26AM 38.9964 -72.4247 324° Northwest 476 548 27,700 -1,920 Descending FlightAware ADS-B
05:26AM 39.0338 -72.4641 321° Northwest 464 534 27,100 -1,620 Descending FlightAware ADS-B
05:26AM 39.0522 -72.4852 318° Northwest 457 526 26,800 -2,040 Descending FlightAware ADS-B
05:27AM 39.0850 -72.5264 316° Northwest 446 513 26,000 -2,400 Descending FlightAware ADS-B
05:27AM 39.1272 -72.5854 313° West 444 511 24,700 -2,220 Descending FlightAware ADS-B
05:27AM 39.1642 -72.6370 313° West 436 502 23,900 -2,040 Descending FlightAware ADS-B
05:28AM 39.2049 -72.6941 313° West 433 498 22,800 -2,220 Descending FlightAware ADS-B
05:28AM 39.2454 -72.7511 313° West 429 494 21,700 -2,100 Descending FlightAware ADS-B
05:29AM 39.2851 -72.8071 312° West 423 487 20,700 -2,100 Descending FlightAware ADS-B
05:29AM 39.3245 -72.8630 312° West 415 478 19,600 -2,220 Descending FlightAware ADS-B
05:30AM 39.3629 -72.9174 312° West 408 470 18,500 -2,220 Descending FlightAware ADS-B
05:30AM 39.4011 -72.9718 312° West 402 463 17,400 -2,220 Descending FlightAware ADS-B
05:31AM 39.4388 -73.0256 312° West 397 457 16,300 -2,220 Descending FlightAware ADS-B
05:31AM 39.4761 -73.0789 312° West 392 451 15,200 -1,980 Descending FlightAware ADS-B
05:32AM 39.5137 -73.1326 312° West 381 438 14,300 -1,440 Descending FlightAware ADS-B
05:33AM 39.5845 -73.2339 312° West 378 435 13,000 -1,080 Descending FlightAware ADS-B
05:34AM 39.6757 -73.3655 312° West 356 410 11,700 -960 Descending FlightAware ADS-B
05:35AM 39.7130 -73.4191 312° West 347 399 11,200 -780 Descending FlightAware ADS-B
05:36AM 39.7510 -73.4737 312° West 347 399 10,800 -540 Descending FlightAware ADS-B
05:36AM 39.7794 -73.5146 312° West 297 342 10,600 -540 Descending FlightAware ADS-B
05:37AM 39.8058 -73.5533 312° West 281 323 10,300 -780 Descending FlightAware ADS-B
05:37AM 39.8291 -73.5872 312° West 281 323 9,900 -840 Descending FlightAware ADS-B
05:37AM 39.8435 -73.6081 312° West 278 320 9,700 -1,020 Descending FlightAware ADS-B
05:38AM 39.8599 -73.6319 312° West 276 318 9,300 -660 Descending FlightAware ADS-B
05:38AM 39.8755 -73.6544 312° West 274 315 9,300  Level FlightAware ADS-B
05:38AM 39.8883 -73.6732 312° West 273 314 9,300  Level FlightAware ADS-B
05:38AM 39.9014 -73.6922 312° West 273 314 9,300  Level FlightAware ADS-B
05:39AM 39.9163 -73.7139 312° West 273 314 9,300  Level FlightAware ADS-B
05:39AM 39.9440 -73.7529 313° West 275 316 9,300  Level FlightAware ADS-B
05:39AM 39.9491 -73.7576 325° Northwest 275 316 9,300  Level FlightAware ADS-B
05:39AM 39.9544 -73.7613 332° Northwest 276 318 9,300  Level FlightAware ADS-B
05:40AM 39.9669 -73.7656 345° North 280 322 9,300  Level FlightAware ADS-B
05:40AM 39.9824 -73.7665 357° North 284 327 9,300  Level FlightAware ADS-B
05:40AM 40.0017 -73.7661 North 286 329 9,300  Level FlightAware ADS-B
05:40AM 40.0219 -73.7659 360° North 286 329 9,300  Level FlightAware ADS-B
05:41AM 40.0420 -73.7657 360° North 285 328 9,300  Level FlightAware ADS-B
05:41AM 40.0620 -73.7655 360° North 285 328 9,300 -420 Level FlightAware ADS-B
05:41AM 40.0816 -73.7653 360° North 280 322 9,100 -1,140 Descending FlightAware ADS-B
05:41AM 40.1039 -73.7652 360° North 278 320 8,700 -1,200 Descending FlightAware ADS-B
05:41AM 40.1080 -73.7652 360° North 276 318 8,700 -660 Level FlightAware ADS-B
05:42AM 40.1274 -73.7656 359° North 269 310 8,500 -840 Descending FlightAware ADS-B
05:42AM 40.1440 -73.7662 358° North 258 297 8,300 -660 Descending FlightAware ADS-B
05:42AM 40.1613 -73.7675 357° North 241 277 8,200 -420 Descending FlightAware ADS-B
05:42AM 40.1776 -73.7690 356° North 226 260 8,100 -540 Descending FlightAware ADS-B
05:43AM 40.1860 -73.7702 354° North 218 251 8,000 -960 Descending FlightAware ADS-B
05:43AM 40.1906 -73.7718 345° North 214 246 7,900 -1,380 Descending FlightAware ADS-B
05:43AM 40.1941 -73.7737 337° Northwest 212 244 7,800 -900 Descending FlightAware ADS-B
05:43AM 40.1969 -73.7759 329° Northwest 211 243 7,800 -900 Level FlightAware ADS-B
05:43AM 40.1993 -73.7786 319° Northwest 211 243 7,700 -1,500 Descending FlightAware ADS-B
05:43AM 40.2019 -73.7822 313° West 212 244 7,600 -900 Descending FlightAware ADS-B
05:43AM 40.2036 -73.7853 306° West 212 244 7,600 -1,320 Level FlightAware ADS-B
05:43AM 40.2071 -73.7991 288° West 217 250 7,300 -1,260 Descending FlightAware ADS-B
05:43AM 40.2060 -73.8170 265° West 222 255 7,100 -1,200 Descending FlightAware ADS-B
05:43AM 40.2043 -73.8274 258° West 220 253 6,900 -1,320 Descending FlightAware ADS-B
05:44AM 40.2012 -73.8464 258° West 215 247 6,600 -1,200 Descending FlightAware ADS-B
05:44AM 40.1982 -73.8650 258° West 206 237 6,300 -1,020 Descending FlightAware ADS-B
05:44AM 40.1955 -73.8834 259° West 203 234 6,100 -1,020 Descending FlightAware ADS-B
05:44AM 40.1927 -73.9021 259° West 203 234 5,800 -1,080 Descending FlightAware ADS-B
05:45AM 40.1907 -73.9159 259° West 202 232 5,600 -1,140 Descending FlightAware ADS-B
05:45AM 40.1882 -73.9343 260° West 202 232 5,300 -1,200 Descending FlightAware ADS-B
05:45AM 40.1876 -73.9402 262° West 202 232 5,200 -1,500 Descending FlightAware ADS-B
05:45AM 40.1876 -73.9442 270° West 200 230 5,100 -1,740 Descending FlightAware ADS-B
05:45AM 40.1880 -73.9488 276° West 197 227 5,000 -1,140 Descending FlightAware ADS-B
05:45AM 40.1900 -73.9564 289° West 193 222 4,900 -1,080 Descending FlightAware ADS-B
05:45AM 40.1951 -73.9642 311° West 178 205 4,700 -1,320 Descending FlightAware ADS-B
05:45AM 40.1982 -73.9673 323° Northwest 175 201 4,600 -1,440 Descending FlightAware ADS-B
05:46AM 40.2041 -73.9723 327° Northwest 173 199 4,400 -1,320 Descending FlightAware ADS-B
05:46AM 40.2110 -73.9780 328° Northwest 174 200 4,200 -960 Descending FlightAware ADS-B
05:46AM 40.2214 -73.9866 328° Northwest 170 196 4,000 -780 Descending FlightAware ADS-B
05:46AM 40.2319 -73.9952 328° Northwest 164 189 3,800 -840 Descending FlightAware ADS-B
05:47AM 40.2444 -74.0050 329° Northwest 162 186 3,500 -1,080 Descending FlightAware ADS-B
05:47AM 40.2500 -74.0094 329° Northwest 158 182 3,300 -960 Descending FlightAware ADS-B
05:47AM 40.2527 -74.0112 333° Northwest 157 181 3,300  Level FlightAware ADS-B
05:47AM 40.2585 -74.0133 345° North 150 173 3,300  Level FlightAware ADS-B
05:47AM 40.2625 -74.0138 355° North 148 170 3,300  Level FlightAware ADS-B
05:47AM 40.2652 -74.0138 360° North 149 171 3,300  Level FlightAware ADS-B
05:47AM 40.2709 -74.0136 North 152 175 3,300  Level FlightAware ADS-B
05:48AM 40.2811 -74.0129 North 149 171 3,300  Level FlightAware ADS-B
05:48AM 40.2879 -74.0125 North 150 173 3,300  Level FlightAware ADS-B
05:48AM 40.2981 -74.0118 North 150 173 3,300  Level FlightAware ADS-B
05:48AM 40.3092 -74.0112 North 150 173 3,300  Level FlightAware ADS-B
05:48AM 40.3154 -74.0108 North 152 175 3,300  Level FlightAware ADS-B
05:49AM 40.3243 -74.0104 North 152 175 3,300  Level FlightAware ADS-B
05:49AM 40.3278 -74.0101 North 151 174 3,300  Level FlightAware ADS-B
05:49AM 40.3308 -74.0094 10° North 150 173 3,300  Level FlightAware ADS-B
05:49AM 40.3329 -74.0087 14° North 148 170 3,300  Level FlightAware ADS-B
05:49AM 40.3350 -74.0077 20° North 147 169 3,300  Level FlightAware ADS-B
05:49AM 40.3376 -74.0062 24° Northeast 146 168 3,300  Level FlightAware ADS-B
05:49AM 40.3412 -74.0038 27° Northeast 145 167 3,300  Level FlightAware ADS-B
05:49AM 40.3460 -74.0002 30° Northeast 145 167 3,300  Level FlightAware ADS-B
05:49AM 40.3549 -73.9933 31° Northeast 145 167 3,300  Level FlightAware ADS-B
05:50AM 40.3636 -73.9867 30° Northeast 146 168 3,300  Level FlightAware ADS-B
05:50AM 40.3705 -73.9812 31° Northeast 145 167 3,300 -300 Level FlightAware ADS-B
05:50AM 40.3753 -73.9775 30° Northeast 144 166 3,200 -780 Descending FlightAware ADS-B
05:50AM 40.3841 -73.9706 31° Northeast 142 163 3,000 -1,020 Descending FlightAware ADS-B
05:51AM 40.3926 -73.9641 30° Northeast 142 163 2,700 -1,020 Descending FlightAware ADS-B
05:51AM 40.4077 -73.9525 30° Northeast 142 163 2,300 -180 Descending FlightAware ADS-B
05:54AM 40.5143 -73.8696 31° Northeast 144 166 2,200 -60 Descending FlightAware ADS-B